createdAt,value
2022-11-16T00:02:12.769Z,3.42
2022-11-16T00:04:39.281Z,3.83
2022-11-16T00:07:06.239Z,3.28
2022-11-16T00:09:32.941Z,3.90
2022-11-16T00:12:00.914Z,2.70
2022-11-16T00:14:28.587Z,2.30
2022-11-16T00:16:55.397Z,3.78
2022-11-16T00:19:21.920Z,2.50
2022-11-16T00:21:48.313Z,2.42
2022-11-16T00:24:15.508Z,2.05
2022-11-16T00:26:42.295Z,2.42
2022-11-16T00:29:19.151Z,2.63
2022-11-16T00:31:45.802Z,2.15
2022-11-16T00:34:12.309Z,2.60
2022-11-16T00:36:38.809Z,2.80
2022-11-16T00:39:05.375Z,2.72
2022-11-16T00:41:31.855Z,3.22
2022-11-16T00:43:58.147Z,3.05
2022-11-16T00:46:24.634Z,2.45
2022-11-16T00:48:50.956Z,2.63
2022-11-16T00:51:17.238Z,2.50
2022-11-16T00:53:43.589Z,2.40
2022-11-16T00:56:09.976Z,3.00
2022-11-16T00:58:36.579Z,2.50
2022-11-16T01:01:04.411Z,2.60
2022-11-16T01:03:30.775Z,2.13
2022-11-16T01:06:00.684Z,2.25
2022-11-16T01:08:27.032Z,2.30
2022-11-16T01:10:53.318Z,2.40
2022-11-16T01:13:19.705Z,2.15
2022-11-16T01:15:49.184Z,2.20
2022-11-16T01:18:15.647Z,2.53
2022-11-16T01:20:41.936Z,2.38
2022-11-16T01:23:08.244Z,2.75
2022-11-16T01:25:34.524Z,2.78
2022-11-16T01:28:00.804Z,2.67
2022-11-16T01:30:27.203Z,2.83
2022-11-16T01:32:53.655Z,2.35
2022-11-16T01:35:20.043Z,2.30
2022-11-16T01:37:46.556Z,2.58
2022-11-16T01:40:14.067Z,2.63
2022-11-16T01:42:40.673Z,2.50
2022-11-16T01:45:07.140Z,2.30
2022-11-16T01:47:33.860Z,2.20
2022-11-16T01:50:06.575Z,2.30
2022-11-16T01:52:34.948Z,1.80
2022-11-16T01:55:02.058Z,1.90
2022-11-16T01:57:32.539Z,2.33
2022-11-16T01:59:59.886Z,1.85
2022-11-16T02:02:26.451Z,2.47
2022-11-16T02:04:53.742Z,2.53
2022-11-16T02:07:26.371Z,2.70
2022-11-16T02:09:55.616Z,2.10
2022-11-16T02:12:29.246Z,1.92
2022-11-16T02:14:55.541Z,2.72
2022-11-16T02:17:31.345Z,2.60
2022-11-16T02:20:00.725Z,2.67
2022-11-16T02:22:38.500Z,3.10
2022-11-16T02:25:04.811Z,2.85
2022-11-16T02:27:50.074Z,1.98
2022-11-16T02:30:17.971Z,2.10
2022-11-16T02:32:48.190Z,2.65
2022-11-16T02:35:24.042Z,1.98
2022-11-16T02:37:54.350Z,2.50
2022-11-16T02:40:22.224Z,3.20
2022-11-16T02:42:53.840Z,3.60
2022-11-16T02:45:22.382Z,2.30
2022-11-16T02:47:50.397Z,2.20
2022-11-16T02:50:18.850Z,1.58
2022-11-16T02:52:45.399Z,1.30
2022-11-16T02:55:11.761Z,1.50
2022-11-16T02:57:48.235Z,1.70
2022-11-16T03:00:21.968Z,1.58
2022-11-16T03:02:51.419Z,1.10
2022-11-16T03:05:20.359Z,1.50
2022-11-16T03:07:55.816Z,1.10
2022-11-16T03:10:41.230Z,1.45
2022-11-16T03:13:09.806Z,1.13
2022-11-16T03:15:37.104Z,1.33
2022-11-16T03:18:04.240Z,1.27
2022-11-16T03:20:31.377Z,1.20
2022-11-16T03:23:00.185Z,1.40
2022-11-16T03:25:29.404Z,0.98
2022-11-16T03:28:01.184Z,0.60
2022-11-16T03:30:29.444Z,0.90
2022-11-16T03:32:58.850Z,1.50
2022-11-16T03:35:25.155Z,1.02
2022-11-16T03:37:53.056Z,0.95
2022-11-16T03:40:20.656Z,1.20
2022-11-16T03:42:49.499Z,0.80
2022-11-16T03:45:17.041Z,1.20
2022-11-16T03:47:43.398Z,1.40
2022-11-16T03:50:09.911Z,1.17
2022-11-16T03:52:36.247Z,1.10
2022-11-16T03:55:02.593Z,1.30
2022-11-16T03:57:29.286Z,0.90
2022-11-16T03:59:55.643Z,1.05
2022-11-16T04:02:22.027Z,1.10
2022-11-16T04:05:07.244Z,1.27
2022-11-16T04:07:52.187Z,1.70
2022-11-16T04:10:37.302Z,1.92
2022-11-16T04:13:22.682Z,1.75
2022-11-16T04:16:07.739Z,1.30
2022-11-16T04:18:52.591Z,1.33
2022-11-16T04:22:07.002Z,1.83
2022-11-16T04:24:34.955Z,1.45
2022-11-16T04:27:21.774Z,1.45
2022-11-16T04:29:48.408Z,1.10
2022-11-16T04:32:33.544Z,1.58
2022-11-16T04:35:18.411Z,1.63
2022-11-16T04:37:52.542Z,1.60
2022-11-16T04:40:20.743Z,1.70
2022-11-16T04:42:51.022Z,1.50
2022-11-16T04:45:36.026Z,1.42
2022-11-16T04:48:02.870Z,1.38
2022-11-16T04:50:29.282Z,1.50
2022-11-16T04:52:55.789Z,1.65
2022-11-16T04:55:22.230Z,1.10
2022-11-16T04:57:48.641Z,1.20
2022-11-16T05:00:15.936Z,0.93
2022-11-16T05:02:42.248Z,0.70
2022-11-16T05:05:08.824Z,0.90
2022-11-16T05:07:35.574Z,0.90
2022-11-16T05:10:03.671Z,0.80
2022-11-16T05:12:30.087Z,0.82
2022-11-16T05:14:56.473Z,0.90
2022-11-16T05:17:23.320Z,0.90
2022-11-16T05:20:08.388Z,0.80
2022-11-16T05:22:35.304Z,0.80
2022-11-16T05:25:02.019Z,0.90
2022-11-16T05:27:29.193Z,0.80
2022-11-16T05:29:55.704Z,0.90
2022-11-16T05:32:22.698Z,1.20
2022-11-16T05:34:49.164Z,1.10
2022-11-16T05:37:16.068Z,0.80
2022-11-16T05:39:42.480Z,0.80
2022-11-16T05:42:08.838Z,0.80
2022-11-16T05:44:35.407Z,0.70
2022-11-16T05:47:01.753Z,0.82
2022-11-16T05:49:28.164Z,0.40
2022-11-16T05:51:54.449Z,0.50
2022-11-16T05:54:21.670Z,0.57
2022-11-16T05:56:48.813Z,0.75
2022-11-16T05:59:16.718Z,0.70
2022-11-16T06:01:43.621Z,0.70
2022-11-16T06:04:10.292Z,1.55
2022-11-16T06:06:36.632Z,0.80
2022-11-16T06:09:03.427Z,1.10
2022-11-16T06:11:35.351Z,1.00
2022-11-16T06:14:02.236Z,0.90
2022-11-16T06:16:28.515Z,0.73
2022-11-16T06:18:54.873Z,1.20
2022-11-16T06:21:21.193Z,0.70
2022-11-16T06:23:47.643Z,0.70
2022-11-16T06:26:14.299Z,0.50
2022-11-16T06:28:40.760Z,0.70
2022-11-16T06:31:07.177Z,0.90
2022-11-16T06:33:34.054Z,1.10
2022-11-16T06:36:00.501Z,1.25
2022-11-16T06:38:27.459Z,1.40
2022-11-16T06:40:54.722Z,1.10
2022-11-16T06:43:21.544Z,1.15
2022-11-16T06:45:48.457Z,1.35
2022-11-16T06:48:14.879Z,1.00
2022-11-16T06:50:41.175Z,0.90
2022-11-16T06:53:07.491Z,1.52
2022-11-16T06:55:33.934Z,1.50
2022-11-16T06:58:01.022Z,1.10
2022-11-16T07:00:27.911Z,1.30
2022-11-16T07:02:54.355Z,1.30
2022-11-16T07:05:20.670Z,1.00
2022-11-16T07:07:47.038Z,0.82
2022-11-16T07:10:13.856Z,1.05
2022-11-16T07:12:40.156Z,1.20
2022-11-16T07:15:06.695Z,1.00
2022-11-16T07:17:33.865Z,0.90
2022-11-16T07:20:00.330Z,0.80
2022-11-16T07:22:26.655Z,1.40
2022-11-16T07:24:53.014Z,1.70
2022-11-16T07:27:19.291Z,2.00
2022-11-16T07:29:45.571Z,2.28
2022-11-16T07:32:12.058Z,1.70
2022-11-16T07:34:38.335Z,1.83
2022-11-16T07:37:04.801Z,1.73
2022-11-16T07:39:31.237Z,1.10
2022-11-16T07:41:57.540Z,1.40
2022-11-16T07:44:23.855Z,1.60
2022-11-16T07:46:50.387Z,1.17
2022-11-16T07:49:17.840Z,0.98
2022-11-16T07:51:45.647Z,1.10
2022-11-16T07:54:13.100Z,1.20
2022-11-16T07:56:39.486Z,1.25
2022-11-16T07:59:06.096Z,0.80
2022-11-16T08:01:33.444Z,0.80
2022-11-16T08:04:01.687Z,0.80
2022-11-16T08:06:29.536Z,0.80
2022-11-16T08:08:58.612Z,1.25
2022-11-16T08:11:25.607Z,0.63
2022-11-16T08:13:51.926Z,1.02
2022-11-16T08:16:19.572Z,1.10
2022-11-16T08:18:45.998Z,1.85
2022-11-16T08:21:13.899Z,1.42
2022-11-16T08:23:40.859Z,1.08
2022-11-16T08:26:09.358Z,0.90
2022-11-16T08:28:36.525Z,1.20
2022-11-16T08:31:09.939Z,0.73
2022-11-16T08:33:36.231Z,0.82
2022-11-16T08:36:06.194Z,1.02
2022-11-16T08:38:36.092Z,1.20
2022-11-16T08:41:02.639Z,0.90
2022-11-16T08:43:30.366Z,1.08
2022-11-16T08:45:57.535Z,1.15
2022-11-16T08:48:23.847Z,1.00
2022-11-16T08:51:15.929Z,0.82
2022-11-16T08:53:36.539Z,1.10
2022-11-16T08:56:03.957Z,1.20
2022-11-16T08:58:30.493Z,1.00
2022-11-16T09:00:57.197Z,1.10
2022-11-16T09:03:23.575Z,1.30
2022-11-16T09:05:49.906Z,1.20
2022-11-16T09:08:16.271Z,0.93
2022-11-16T09:10:42.629Z,0.80
2022-11-16T09:13:08.992Z,0.80
2022-11-16T09:15:35.363Z,1.00
2022-11-16T09:18:01.636Z,0.90
2022-11-16T09:20:27.981Z,0.95
2022-11-16T09:22:54.372Z,0.73
2022-11-16T09:25:21.025Z,0.90
2022-11-16T09:27:47.468Z,0.80
2022-11-16T09:30:13.906Z,0.75
2022-11-16T09:32:40.206Z,0.50
2022-11-16T09:35:06.712Z,0.65
2022-11-16T09:37:33.126Z,0.50
2022-11-16T09:39:59.447Z,0.40
2022-11-16T09:42:48.851Z,0.40
2022-11-16T09:45:22.773Z,0.40
2022-11-16T09:47:56.361Z,0.68
2022-11-16T09:50:27.970Z,0.40
2022-11-16T09:52:56.204Z,0.30
2022-11-16T09:55:42.336Z,0.30
2022-11-16T09:58:13.470Z,0.80
2022-11-16T10:00:44.036Z,0.90
2022-11-16T10:03:11.943Z,1.25
2022-11-16T10:06:04.516Z,1.35
2022-11-16T10:08:43.092Z,1.40
2022-11-16T10:11:28.291Z,1.48
2022-11-16T10:14:04.430Z,1.48
2022-11-16T10:16:34.206Z,1.02
2022-11-16T10:19:09.597Z,1.40
2022-11-16T10:21:54.329Z,0.98
2022-11-16T10:24:30.203Z,1.27
2022-11-16T10:27:03.104Z,0.85
2022-11-16T10:29:38.641Z,1.20
2022-11-16T10:32:04.982Z,1.23
2022-11-16T10:34:37.717Z,1.00
2022-11-16T10:37:07.826Z,0.82
2022-11-16T10:39:34.331Z,0.75
2022-11-16T10:42:07.517Z,0.50
2022-11-16T10:44:37.597Z,0.70
2022-11-16T10:47:03.927Z,0.38
2022-11-16T10:49:37.565Z,0.63
2022-11-16T10:52:04.092Z,0.30
2022-11-16T10:54:30.374Z,0.40
2022-11-16T10:57:01.557Z,0.30
2022-11-16T10:59:59.093Z,0.30
2022-11-16T11:02:28.536Z,0.17
2022-11-16T11:05:06.101Z,0.30
2022-11-16T11:07:37.841Z,0.50
2022-11-16T11:10:04.838Z,0.73
2022-11-16T11:12:40.164Z,0.70
2022-11-16T11:15:13.348Z,0.95
2022-11-16T11:17:43.797Z,0.60
2022-11-16T11:20:16.081Z,0.60
2022-11-16T11:22:51.663Z,0.50
2022-11-16T11:25:31.175Z,0.80
2022-11-16T11:28:12.866Z,0.60
2022-11-16T11:30:39.358Z,0.40
2022-11-16T11:33:11.261Z,0.60
2022-11-16T11:38:08.110Z,0.63
2022-11-16T11:40:34.813Z,0.80
2022-11-16T11:43:02.738Z,0.68
2022-11-16T11:45:49.302Z,1.30
2022-11-16T11:48:35.597Z,1.20
2022-11-16T11:51:15.150Z,1.10
2022-11-16T11:53:47.342Z,0.98
2022-11-16T11:56:14.522Z,0.88
2022-11-16T11:58:41.319Z,0.82
2022-11-16T12:01:26.402Z,1.13
2022-11-16T12:03:55.887Z,0.98
2022-11-16T12:06:32.736Z,1.20
2022-11-16T12:09:19.409Z,1.30
2022-11-16T12:12:04.675Z,1.20
2022-11-16T12:14:39.332Z,0.90
2022-11-16T12:17:05.751Z,0.75
2022-11-16T12:19:32.016Z,0.90
2022-11-16T12:22:01.294Z,0.60
2022-11-16T12:24:27.714Z,0.70
2022-11-16T12:26:53.984Z,1.02
2022-11-16T12:29:23.912Z,0.70
2022-11-16T12:31:50.204Z,0.90
2022-11-16T12:34:19.654Z,0.70
2022-11-16T12:36:59.757Z,0.95
2022-11-16T12:39:35.264Z,0.85
2022-11-16T12:42:01.592Z,1.35
2022-11-16T12:44:54.339Z,0.95
2022-11-16T12:47:29.083Z,0.85
2022-11-16T12:50:06.289Z,0.95
2022-11-16T12:52:35.605Z,1.10
2022-11-16T12:55:27.950Z,0.80
2022-11-16T12:57:54.741Z,0.60
2022-11-16T13:00:21.199Z,0.63
2022-11-16T13:03:01.031Z,0.95
2022-11-16T13:05:40.071Z,1.15
2022-11-16T13:08:13.187Z,0.70
2022-11-16T13:10:43.010Z,0.73
2022-11-16T13:13:39.068Z,0.88
2022-11-16T13:16:06.889Z,1.98
2022-11-16T13:18:34.848Z,0.70
2022-11-16T13:21:05.018Z,0.65
2022-11-16T13:23:31.525Z,0.90
2022-11-16T13:25:58.268Z,1.17
2022-11-16T13:28:36.832Z,1.25
2022-11-16T13:31:26.423Z,1.10
2022-11-16T13:33:55.111Z,1.30
2022-11-16T13:36:37.348Z,0.63
2022-11-16T13:39:04.586Z,0.80
2022-11-16T13:41:33.604Z,0.88
2022-11-16T13:44:00.412Z,1.40
2022-11-16T13:46:55.338Z,1.30
2022-11-16T13:49:37.761Z,1.73
2022-11-16T13:52:22.815Z,1.05
2022-11-16T13:54:54.680Z,1.10
2022-11-16T13:57:32.533Z,1.40
2022-11-16T14:00:01.920Z,1.10
2022-11-16T14:02:28.238Z,1.08
2022-11-16T14:04:57.848Z,0.90
2022-11-16T14:07:34.756Z,0.90
2022-11-16T14:10:01.441Z,1.23
2022-11-16T14:12:37.196Z,0.93
2022-11-16T14:15:04.083Z,1.05
2022-11-16T14:18:00.065Z,0.95
2022-11-16T14:20:32.128Z,1.00
2022-11-16T14:23:09.019Z,1.17
2022-11-16T14:25:38.118Z,0.60
2022-11-16T14:28:16.983Z,0.60
2022-11-16T14:30:48.631Z,1.00
2022-11-16T14:33:23.825Z,0.90
2022-11-16T14:35:52.206Z,0.90
2022-11-16T14:38:18.469Z,1.15
2022-11-16T14:40:50.493Z,1.00
2022-11-16T14:43:23.603Z,0.93
2022-11-16T14:45:55.038Z,0.97
2022-11-16T14:48:22.396Z,1.92
2022-11-16T14:51:07.529Z,2.03
2022-11-16T14:53:36.311Z,1.40
2022-11-16T14:56:21.225Z,1.45
2022-11-16T14:59:05.739Z,1.30
2022-11-16T15:01:38.602Z,1.50
2022-11-16T15:04:09.211Z,1.48
2022-11-16T15:06:38.927Z,1.80
2022-11-16T15:09:05.632Z,1.52
2022-11-16T15:11:58.904Z,1.48
2022-11-16T15:14:32.852Z,1.88
2022-11-16T15:16:59.723Z,1.20
2022-11-16T15:19:29.109Z,1.30
2022-11-16T15:21:59.449Z,1.40
2022-11-16T15:24:31.890Z,1.10
2022-11-16T15:27:15.957Z,1.13
2022-11-16T15:29:42.295Z,1.30
2022-11-16T15:32:12.898Z,1.80
2022-11-16T15:34:39.497Z,1.40
2022-11-16T15:37:05.783Z,1.10
2022-11-16T15:39:34.216Z,1.10
2022-11-16T15:42:03.951Z,0.88
2022-11-16T15:44:31.262Z,1.50
2022-11-16T15:46:58.185Z,1.83
2022-11-16T15:49:35.450Z,1.45
2022-11-16T15:52:02.013Z,1.55
2022-11-16T15:54:52.524Z,1.25
2022-11-16T15:57:20.032Z,1.42
2022-11-16T15:59:48.249Z,1.33
2022-11-16T16:02:21.654Z,1.00
2022-11-16T16:04:47.943Z,1.30
2022-11-16T16:07:34.326Z,1.33
2022-11-16T16:10:19.182Z,1.40
2022-11-16T16:12:52.975Z,1.40
2022-11-16T16:15:21.295Z,1.38
2022-11-16T16:17:47.660Z,1.50
2022-11-16T16:20:21.447Z,2.47
2022-11-16T16:22:47.759Z,1.88
2022-11-16T16:25:30.469Z,1.50
2022-11-16T16:27:57.024Z,1.85
2022-11-16T16:30:23.564Z,1.25
2022-11-16T16:32:50.459Z,1.90
2022-11-16T16:35:18.618Z,1.50
2022-11-16T16:37:47.793Z,1.25
2022-11-16T16:40:14.137Z,1.23
2022-11-16T16:42:41.476Z,1.33
2022-11-16T16:45:12.131Z,1.10
2022-11-16T16:47:38.460Z,1.30
2022-11-16T16:50:04.920Z,1.80
2022-11-16T16:52:31.768Z,1.45
2022-11-16T16:54:58.131Z,1.40
2022-11-16T16:57:24.424Z,1.30
2022-11-16T16:59:50.798Z,1.00
2022-11-16T17:02:17.710Z,1.40
2022-11-16T17:04:46.368Z,1.00
2022-11-16T17:07:12.772Z,1.20
2022-11-16T17:09:39.137Z,0.70
2022-11-16T17:12:05.608Z,0.90
2022-11-16T17:14:32.033Z,1.30
2022-11-16T17:16:59.204Z,1.10
2022-11-16T17:19:25.576Z,3.95
2022-11-16T17:21:52.108Z,2.85
2022-11-16T17:24:18.490Z,2.97
2022-11-16T17:26:48.175Z,2.63
2022-11-16T17:29:14.916Z,2.45
2022-11-16T17:31:44.209Z,1.60
2022-11-16T17:34:13.812Z,1.33
2022-11-16T17:36:40.760Z,1.20
2022-11-16T17:39:07.158Z,1.48
2022-11-16T17:41:33.453Z,1.00
2022-11-16T17:43:59.772Z,0.90
2022-11-16T17:46:26.171Z,0.70
2022-11-16T17:48:52.529Z,0.70
2022-11-16T17:51:20.331Z,0.70
2022-11-16T17:53:46.952Z,0.68
2022-11-16T17:56:14.169Z,0.80
2022-11-16T17:58:40.597Z,0.82
2022-11-16T18:01:07.152Z,0.70
2022-11-16T18:03:37.161Z,1.00
2022-11-16T18:06:07.687Z,1.13
2022-11-16T18:08:34.657Z,1.27
2022-11-16T18:11:08.135Z,1.30
2022-11-16T18:13:34.936Z,1.75
2022-11-16T18:16:05.703Z,1.20
2022-11-16T18:18:32.853Z,0.93
2022-11-16T18:20:59.744Z,0.80
2022-11-16T18:23:27.247Z,1.20
2022-11-16T18:25:53.979Z,2.80
2022-11-16T18:28:20.279Z,2.50
2022-11-16T18:30:46.726Z,2.10
2022-11-16T18:33:13.104Z,1.83
2022-11-16T18:35:39.387Z,2.42
2022-11-16T18:38:07.219Z,2.42
2022-11-16T18:40:33.715Z,2.13
2022-11-16T18:43:00.100Z,1.70
2022-11-16T18:45:26.559Z,1.60
2022-11-16T18:47:52.890Z,1.08
2022-11-16T18:50:26.511Z,1.20
2022-11-16T18:52:53.272Z,0.80
2022-11-16T18:55:19.574Z,0.80
2022-11-16T18:57:45.867Z,0.80
2022-11-16T19:00:12.595Z,1.35
2022-11-16T19:02:38.894Z,1.80
2022-11-16T19:05:06.037Z,2.38
2022-11-16T19:07:32.628Z,2.40
2022-11-16T19:09:59.031Z,2.22
2022-11-16T19:12:25.465Z,1.90
2022-11-16T19:14:51.832Z,1.70
2022-11-16T19:17:20.269Z,1.70
2022-11-16T19:19:46.554Z,1.65
2022-11-16T19:22:12.957Z,1.25
2022-11-16T19:24:39.493Z,2.00
2022-11-16T19:27:05.804Z,2.05
2022-11-16T19:29:32.120Z,1.55
2022-11-16T19:31:58.398Z,1.95
2022-11-16T19:34:28.961Z,1.40
2022-11-16T19:36:58.479Z,2.00
2022-11-16T19:39:24.774Z,2.10
2022-11-16T19:41:51.125Z,2.63
2022-11-16T19:44:17.527Z,2.00
2022-11-16T19:46:43.844Z,1.70
2022-11-16T19:49:19.488Z,1.60
2022-11-16T19:51:46.339Z,1.35
2022-11-16T19:54:14.676Z,1.23
2022-11-16T19:56:41.590Z,0.98
2022-11-16T19:59:08.112Z,0.98
2022-11-16T20:01:34.467Z,0.90
2022-11-16T20:04:02.283Z,0.95
2022-11-16T20:06:33.381Z,0.70
2022-11-16T20:09:00.996Z,0.87
2022-11-16T20:11:33.583Z,0.80
2022-11-16T20:14:00.232Z,0.40
2022-11-16T20:16:27.965Z,0.50
2022-11-16T20:18:54.671Z,0.73
2022-11-16T20:21:33.286Z,0.73
2022-11-16T20:24:05.822Z,0.80
2022-11-16T20:26:35.704Z,0.50
2022-11-16T20:29:02.172Z,1.00
2022-11-16T20:31:29.642Z,1.00
2022-11-16T20:33:57.223Z,0.90
2022-11-16T20:36:24.361Z,1.05
2022-11-16T20:38:51.073Z,1.05
2022-11-16T20:41:18.712Z,1.00
2022-11-16T20:43:45.510Z,0.80
2022-11-16T20:46:12.860Z,0.90
2022-11-16T20:48:39.763Z,0.70
2022-11-16T20:51:06.683Z,0.80
2022-11-16T20:53:33.440Z,0.75
2022-11-16T20:56:02.447Z,2.03
2022-11-16T20:58:29.488Z,1.80
2022-11-16T21:00:55.981Z,1.30
2022-11-16T21:03:22.326Z,2.67
2022-11-16T21:05:50.552Z,3.15
2022-11-16T21:08:16.957Z,3.63
2022-11-16T21:10:44.034Z,3.00
2022-11-16T21:13:33.001Z,2.88
2022-11-16T21:16:00.899Z,2.75
2022-11-16T21:18:30.723Z,2.45
2022-11-16T21:21:01.036Z,2.00
2022-11-16T21:23:28.501Z,1.88
2022-11-16T21:25:55.089Z,1.65
2022-11-16T21:28:25.458Z,1.50
2022-11-16T21:30:59.096Z,1.30
2022-11-16T21:33:25.651Z,1.00
2022-11-16T21:35:55.482Z,0.90
2022-11-16T21:38:22.788Z,0.80
2022-11-16T21:40:49.278Z,0.40
2022-11-16T21:43:15.781Z,0.30
2022-11-16T21:45:42.629Z,0.30
2022-11-16T21:48:09.028Z,0.30
2022-11-16T21:50:35.353Z,0.60
2022-11-16T21:53:01.868Z,0.90
2022-11-16T21:55:28.267Z,1.27
2022-11-16T21:57:54.550Z,1.10
2022-11-16T22:00:20.950Z,1.63
2022-11-16T22:02:47.260Z,1.50
2022-11-16T22:05:32.343Z,1.50
2022-11-16T22:08:03.360Z,1.20
2022-11-16T22:10:29.731Z,0.98
2022-11-16T22:12:56.225Z,1.20
2022-11-16T22:15:22.499Z,0.57
2022-11-16T22:17:49.964Z,0.40
2022-11-16T22:20:16.522Z,0.50
2022-11-16T22:22:43.080Z,0.70
2022-11-16T22:25:09.594Z,0.50
2022-11-16T22:27:58.457Z,0.60
2022-11-16T22:30:22.341Z,1.00
2022-11-16T22:32:48.727Z,0.88
2022-11-16T22:35:15.091Z,0.90
2022-11-16T22:37:42.204Z,0.95
2022-11-16T22:40:12.489Z,1.38
2022-11-16T22:42:41.223Z,0.60
2022-11-16T22:45:07.768Z,0.70
2022-11-16T22:47:35.795Z,1.08
2022-11-16T22:50:02.688Z,1.10
2022-11-16T22:52:29.221Z,1.13
2022-11-16T22:54:55.766Z,1.40
2022-11-16T22:57:22.093Z,1.48
2022-11-16T22:59:48.410Z,1.52
2022-11-16T23:02:14.837Z,1.50
2022-11-16T23:04:41.127Z,1.15
2022-11-16T23:07:07.448Z,1.33
2022-11-16T23:09:34.434Z,1.65
2022-11-16T23:12:19.488Z,1.52
2022-11-16T23:15:04.309Z,1.35
2022-11-16T23:17:30.573Z,1.50
2022-11-16T23:20:17.791Z,1.80
2022-11-16T23:23:03.096Z,1.80
2022-11-16T23:25:48.298Z,1.83
2022-11-16T23:28:15.744Z,1.52
2022-11-16T23:30:42.157Z,1.85
2022-11-16T23:33:09.236Z,1.60
2022-11-16T23:35:35.535Z,2.03
2022-11-16T23:38:02.741Z,1.40
2022-11-16T23:40:30.459Z,2.00
2022-11-16T23:43:15.466Z,2.08
2022-11-16T23:45:42.715Z,1.58
2022-11-16T23:48:10.356Z,1.92
2022-11-16T23:50:37.067Z,1.60
2022-11-16T23:53:04.498Z,1.70
2022-11-16T23:55:32.076Z,2.22
2022-11-16T23:57:58.625Z,2.10
